Time;durP1;ratioP1;P1;durP2;ratioP2;P2;SDS_P1;SDS_P2;PMS_P1;PMS_P2;Temp;Humidity;BMP_temperature;BMP_pressure;BME280_temperature;BME280_humidity;BME280_pressure;Samples;Min_cycle;Max_cycle;Signal;HPM_P1;HPM_P2
2022/03/10 00:00:21;;;;;;;21.58;10.57;;;0.80;99.90;;;;;;5095248;27;20032;-84
2022/03/10 00:02:46;;;;;;;22.48;10.93;;;1.30;99.90;;;;;;5104020;27;20058;-83
2022/03/10 00:05:14;;;;;;;22.20;10.80;;;0.70;99.90;;;;;;5096214;27;20043;-83
2022/03/10 00:07:40;;;;;;;24.35;11.65;;;0.70;99.90;;;;;;5095731;27;20051;-84
2022/03/10 00:10:06;;;;;;;23.13;10.77;;;0.70;99.90;;;;;;5084254;27;20266;-84
2022/03/10 00:12:32;;;;;;;22.02;11.52;;;0.70;99.90;;;;;;5082572;27;20036;-84
2022/03/10 00:14:58;;;;;;;19.92;11.07;;;0.60;99.90;;;;;;5092365;27;20062;-84
2022/03/10 00:17:24;;;;;;;21.50;11.60;;;0.60;99.90;;;;;;5097733;27;20051;-84
2022/03/10 00:19:53;;;;;;;22.00;11.75;;;0.60;99.90;;;;;;5085596;27;20034;-84
2022/03/10 00:22:19;;;;;;;21.77;11.23;;;1.30;99.90;;;;;;5093411;27;20043;-83
2022/03/10 00:24:44;;;;;;;20.73;10.90;;;0.50;99.90;;;;;;5125444;27;20049;-84
2022/03/10 00:27:10;;;;;;;22.50;10.75;;;0.40;99.90;;;;;;5112608;27;20145;-84
2022/03/10 00:29:36;;;;;;;22.30;12.02;;;0.40;99.90;;;;;;5102554;27;20117;-84
2022/03/10 00:32:01;;;;;;;23.35;11.85;;;1.40;99.90;;;;;;5119251;27;20151;-83
2022/03/10 00:34:28;;;;;;;26.15;12.60;;;1.10;99.90;;;;;;5097554;27;20081;-83
2022/03/10 00:36:54;;;;;;;21.35;11.18;;;0.30;99.90;;;;;;5094592;27;20035;-84
2022/03/10 00:39:20;;;;;;;27.55;11.77;;;0.30;99.90;;;;;;5117336;27;20057;-84
2022/03/10 00:41:45;;;;;;;24.02;12.40;;;0.20;99.90;;;;;;5072185;27;20406;-83
2022/03/10 00:44:11;;;;;;;22.85;12.07;;;0.20;99.90;;;;;;5099797;27;20047;-84
2022/03/10 00:46:36;;;;;;;21.88;12.00;;;0.10;99.90;;;;;;5134021;27;20031;-84
2022/03/10 00:49:02;;;;;;;21.42;12.45;;;0.20;99.90;;;;;;5086878;27;20048;-83
2022/03/10 00:51:28;;;;;;;24.52;12.80;;;0.90;99.90;;;;;;5123254;27;20742;-83
2022/03/10 00:53:54;;;;;;;23.50;12.23;;;0.70;99.90;;;;;;5109066;27;20504;-83
2022/03/10 00:56:19;;;;;;;21.20;11.00;;;0.30;99.90;;;;;;5109195;27;21305;-83
2022/03/10 00:58:45;;;;;;;25.15;11.45;;;0.30;99.90;;;;;;5091966;27;20074;-83
2022/03/10 01:01:11;;;;;;;24.48;11.63;;;0.40;99.90;;;;;;5099245;27;20440;-83
2022/03/10 01:03:37;;;;;;;23.17;10.93;;;0.50;99.90;;;;;;5116455;27;20103;-83
2022/03/10 01:06:03;;;;;;;22.40;10.98;;;0.50;99.90;;;;;;5137387;27;20065;-83
2022/03/10 01:08:29;;;;;;;20.15;11.45;;;0.60;99.90;;;;;;5109689;27;20438;-83
2022/03/10 01:10:54;;;;;;;22.30;11.10;;;0.70;99.90;;;;;;5106929;27;20081;-83
2022/03/10 01:13:21;;;;;;;20.95;10.50;;;0.70;99.90;;;;;;5132620;27;20031;-83
2022/03/10 01:15:47;;;;;;;20.02;11.15;;;0.70;99.90;;;;;;5116433;27;20403;-82
2022/03/10 01:18:14;;;;;;;22.25;10.45;;;0.70;99.90;;;;;;5124433;27;20443;-82
2022/03/10 01:20:41;;;;;;;22.48;11.52;;;0.80;99.90;;;;;;5126813;27;20046;-82
2022/03/10 01:23:08;;;;;;;23.67;10.93;;;0.90;99.90;;;;;;5132141;27;20163;-82
2022/03/10 01:25:37;;;;;;;25.13;11.35;;;0.90;99.90;;;;;;5126248;27;20039;-82
2022/03/10 01:28:03;;;;;;;21.13;10.25;;;1.00;99.90;;;;;;5123191;27;20430;-82
2022/03/10 01:30:29;;;;;;;20.35;10.57;;;1.10;99.90;;;;;;5137323;27;20046;-82
2022/03/10 01:32:54;;;;;;;24.10;10.52;;;1.20;99.90;;;;;;5100773;27;20499;-82
2022/03/10 01:35:21;;;;;;;21.42;10.48;;;1.20;99.90;;;;;;5119580;27;20070;-83
2022/03/10 01:37:46;;;;;;;18.88;10.18;;;1.30;99.90;;;;;;5134192;27;20099;-82
2022/03/10 01:40:15;;;;;;;19.63;10.88;;;1.30;99.90;;;;;;5131350;27;20034;-82
2022/03/10 01:42:41;;;;;;;21.35;10.43;;;1.30;99.90;;;;;;5122010;27;20053;-83
2022/03/10 01:45:07;;;;;;;18.45;10.00;;;1.40;99.90;;;;;;5132253;27;20043;-83
2022/03/10 01:47:34;;;;;;;22.05;10.45;;;1.40;99.90;;;;;;5108084;27;20034;-82
2022/03/10 01:50:00;;;;;;;18.83;10.90;;;1.30;99.90;;;;;;5116119;27;20131;-82
2022/03/10 01:52:26;;;;;;;21.02;10.85;;;1.30;99.90;;;;;;5121700;27;20724;-82
2022/03/10 01:54:51;;;;;;;18.60;9.85;;;1.20;99.90;;;;;;5129754;27;20038;-83
2022/03/10 01:57:18;;;;;;;22.10;10.30;;;1.10;99.90;;;;;;5144204;27;20061;-82
2022/03/10 01:59:43;;;;;;;19.15;10.55;;;1.00;99.90;;;;;;5104274;27;20043;-82
2022/03/10 02:02:10;;;;;;;20.90;11.05;;;0.90;99.90;;;;;;5128978;27;20103;-82
2022/03/10 02:04:35;;;;;;;20.25;10.73;;;0.80;99.90;;;;;;5118643;27;20043;-83
2022/03/10 02:07:03;;;;;;;20.52;10.43;;;0.70;99.90;;;;;;5133666;27;20046;-85
2022/03/10 02:12:14;;;;;;;20.48;10.88;;;0.50;99.90;;;;;;5144342;27;20175;-83
2022/03/10 02:17:26;;;;;;;21.58;10.63;;;0.30;99.90;;;;;;5110333;27;20047;-84
2022/03/10 02:19:57;;;;;;;24.88;11.98;;;0.20;99.90;;;;;;5111234;27;20043;-84
2022/03/10 02:22:24;;;;;;;22.83;11.93;;;0.10;99.90;;;;;;5088383;27;20507;-84
2022/03/10 02:24:54;;;;;;;21.80;10.60;;;0.00;99.90;;;;;;5096180;27;20300;-84
2022/03/10 02:27:25;;;;;;;23.35;11.13;;;0.00;99.90;;;;;;5102221;27;20096;-84
2022/03/10 02:29:52;;;;;;;20.92;12.02;;;-0.10;99.90;;;;;;5100877;27;20412;-84
2022/03/10 02:32:19;;;;;;;22.60;12.07;;;-0.60;99.90;;;;;;5101859;28;20559;-84
2022/03/10 02:34:45;;;;;;;21.25;11.60;;;-0.20;99.90;;;;;;5129936;27;20035;-84
2022/03/10 02:37:12;;;;;;;24.30;10.75;;;-0.20;99.90;;;;;;5092123;27;20035;-84
2022/03/10 02:39:38;;;;;;;19.40;10.35;;;-0.20;99.90;;;;;;5086104;27;20089;-83
2022/03/10 02:42:05;;;;;;;22.23;11.00;;;-0.10;99.90;;;;;;5088748;27;20051;-84
2022/03/10 02:44:31;;;;;;;21.02;11.18;;;-0.10;99.90;;;;;;5130316;27;20558;-83
2022/03/10 02:46:56;;;;;;;23.25;11.75;;;0.00;99.90;;;;;;5072534;27;20118;-84
2022/03/10 02:49:23;;;;;;;22.35;11.57;;;0.00;99.90;;;;;;5083319;27;20050;-83
2022/03/10 02:51:50;;;;;;;22.73;10.63;;;0.00;99.90;;;;;;5094943;27;20524;-83
2022/03/10 02:54:16;;;;;;;20.80;11.38;;;0.10;99.90;;;;;;5087113;27;20526;-83
2022/03/10 02:56:42;;;;;;;24.23;11.18;;;0.10;99.90;;;;;;5076716;28;20047;-83
2022/03/10 02:59:09;;;;;;;23.00;11.93;;;0.20;99.90;;;;;;5090841;28;20467;-83
2022/03/10 03:01:34;;;;;;;22.98;11.77;;;0.20;99.90;;;;;;5110177;27;20054;-84
2022/03/10 03:04:00;;;;;;;21.60;11.95;;;1.00;99.90;;;;;;5089511;27;20050;-84
2022/03/10 03:06:26;;;;;;;22.55;12.10;;;0.20;99.90;;;;;;5108491;27;20435;-83
2022/03/10 03:08:51;;;;;;;22.58;11.43;;;0.20;99.90;;;;;;5106642;27;20129;-83
2022/03/10 03:11:17;;;;;;;19.73;10.48;;;0.20;99.90;;;;;;5093245;27;20031;-83
2022/03/10 03:13:43;;;;;;;22.20;11.80;;;0.30;99.90;;;;;;5080462;27;20445;-83
2022/03/10 03:16:09;;;;;;;23.17;11.63;;;0.30;99.90;;;;;;5115064;27;20036;-83
2022/03/10 03:18:34;;;;;;;21.90;11.23;;;0.30;99.90;;;;;;5108041;27;20089;-83
2022/03/10 03:21:00;;;;;;;22.73;11.60;;;0.40;99.90;;;;;;5126283;27;20070;-83
2022/03/10 03:23:26;;;;;;;20.42;10.73;;;0.40;99.90;;;;;;5129188;27;20030;-83
2022/03/10 03:25:52;;;;;;;23.02;10.35;;;0.40;99.90;;;;;;5122147;27;20039;-83
2022/03/10 03:28:21;;;;;;;23.40;11.73;;;0.40;99.90;;;;;;5118383;27;20080;-83
2022/03/10 03:30:50;;;;;;;19.52;10.30;;;0.50;99.90;;;;;;5105900;27;20038;-84
2022/03/10 03:33:16;;;;;;;25.73;11.27;;;0.50;99.90;;;;;;5114318;27;20047;-83
2022/03/10 03:35:42;;;;;;;25.85;11.88;;;0.40;99.90;;;;;;5121244;27;20069;-83
2022/03/10 03:38:08;;;;;;;20.73;10.55;;;0.40;99.90;;;;;;5124400;27;20039;-83
2022/03/10 03:40:34;;;;;;;22.15;11.68;;;0.40;99.90;;;;;;5130939;27;20053;-83
2022/03/10 03:43:00;;;;;;;19.13;11.10;;;0.40;99.90;;;;;;5105211;27;20046;-83
2022/03/10 03:45:26;;;;;;;19.88;10.70;;;0.40;99.90;;;;;;5126473;27;20570;-83
2022/03/10 03:47:54;;;;;;;23.48;11.85;;;0.40;99.90;;;;;;5138109;27;20039;-83
2022/03/10 03:50:20;;;;;;;20.45;11.20;;;0.50;99.90;;;;;;5128788;27;20039;-83
2022/03/10 03:52:46;;;;;;;23.05;11.68;;;0.50;99.90;;;;;;5105676;27;20047;-83
2022/03/10 03:55:12;;;;;;;25.17;12.25;;;0.50;99.90;;;;;;5102324;27;20049;-83
2022/03/10 03:57:38;;;;;;;21.95;11.88;;;0.40;99.90;;;;;;5106084;27;20162;-83
2022/03/10 04:00:07;;;;;;;19.88;11.23;;;0.40;99.90;;;;;;5121683;27;20503;-83
2022/03/10 04:02:33;;;;;;;21.08;10.98;;;0.30;99.90;;;;;;5126392;27;20042;-83
2022/03/10 04:04:58;;;;;;;22.63;11.27;;;0.20;99.90;;;;;;5110499;27;20047;-83
2022/03/10 04:07:24;;;;;;;21.00;11.60;;;0.20;99.90;;;;;;5097731;27;20070;-84
2022/03/10 04:09:50;;;;;;;21.83;10.90;;;0.10;99.90;;;;;;5112546;27;20054;-83
2022/03/10 04:12:15;;;;;;;23.48;11.85;;;0.00;99.90;;;;;;5121988;27;20043;-83
2022/03/10 04:14:41;;;;;;;22.65;11.52;;;-0.10;99.90;;;;;;5121724;27;20043;-83
2022/03/10 04:17:07;;;;;;;22.05;12.70;;;-0.10;99.90;;;;;;5126327;27;20039;-83
2022/03/10 04:19:33;;;;;;;24.08;11.63;;;-0.10;99.90;;;;;;5116168;27;20499;-84
2022/03/10 04:21:59;;;;;;;21.83;11.52;;;-0.20;99.90;;;;;;5102028;27;20092;-83
2022/03/10 04:24:24;;;;;;;25.23;12.63;;;-0.20;99.90;;;;;;5110255;27;20046;-83
2022/03/10 04:26:50;;;;;;;24.92;11.43;;;-0.30;99.90;;;;;;5106810;27;20051;-83
2022/03/10 04:29:16;;;;;;;22.35;12.57;;;-0.30;99.90;;;;;;5082061;27;20039;-83
2022/03/10 04:31:42;;;;;;;21.85;11.70;;;-0.30;99.90;;;;;;5085748;27;20050;-83
2022/03/10 04:34:08;;;;;;;26.65;11.30;;;1.00;99.90;;;;;;5094903;28;20046;-83
2022/03/10 04:36:34;;;;;;;22.75;11.95;;;-0.30;99.90;;;;;;5109029;27;20031;-83
2022/03/10 04:39:00;;;;;;;23.27;11.65;;;-0.40;99.90;;;;;;5099372;27;20428;-83
2022/03/10 04:41:26;;;;;;;26.33;12.20;;;-0.40;99.90;;;;;;5081828;28;20050;-84
2022/03/10 04:43:52;;;;;;;24.23;12.75;;;-0.50;99.90;;;;;;5084100;27;20047;-83
2022/03/10 04:46:18;;;;;;;24.25;12.13;;;-0.50;99.90;;;;;;5089600;28;20047;-83
2022/03/10 04:48:44;;;;;;;25.00;12.98;;;-0.50;99.90;;;;;;5089579;27;20480;-83
2022/03/10 04:51:09;;;;;;;22.55;11.93;;;-0.50;99.90;;;;;;5087842;28;20127;-83
2022/03/10 04:53:35;;;;;;;22.30;12.43;;;-0.50;99.90;;;;;;5101321;28;20051;-83
2022/03/10 04:56:01;;;;;;;24.80;12.95;;;-0.50;99.90;;;;;;5078798;28;20484;-84
2022/03/10 04:58:26;;;;;;;23.65;12.18;;;-0.60;99.90;;;;;;5127175;28;20045;-83
2022/03/10 05:00:52;;;;;;;22.35;11.68;;;-0.60;99.90;;;;;;5106095;28;20574;-83
2022/03/10 05:03:18;;;;;;;27.25;13.35;;;-0.60;99.90;;;;;;5092198;28;20507;-83
2022/03/10 05:05:46;;;;;;;26.00;11.80;;;-0.50;99.90;;;;;;5077177;28;20130;-83
2022/03/10 05:08:12;;;;;;;23.75;12.73;;;-0.50;99.90;;;;;;5075533;28;20385;-83
2022/03/10 05:10:37;;;;;;;22.23;11.73;;;-0.40;99.90;;;;;;5094176;28;20042;-83
2022/03/10 05:13:03;;;;;;;22.00;11.85;;;-0.30;99.90;;;;;;5108429;28;20039;-83
2022/03/10 05:15:33;;;;;;;23.73;11.63;;;-0.20;99.90;;;;;;5108922;27;20055;-83
2022/03/10 05:18:00;;;;;;;24.25;12.43;;;-0.20;99.90;;;;;;5106005;28;20047;-83
2022/03/10 05:20:26;;;;;;;23.67;10.95;;;-0.10;99.90;;;;;;5101137;28;20078;-83
2022/03/10 05:22:56;;;;;;;24.30;10.85;;;-0.10;99.90;;;;;;5093569;28;20039;-83
2022/03/10 05:25:24;;;;;;;23.55;11.65;;;0.00;99.90;;;;;;5114682;28;20479;-83
2022/03/10 05:27:51;;;;;;;21.00;10.52;;;0.00;99.90;;;;;;5109193;28;20491;-83
2022/03/10 05:30:19;;;;;;;18.88;10.55;;;0.10;99.90;;;;;;5101069;28;20039;-83
2022/03/10 05:32:45;;;;;;;21.67;11.52;;;0.10;99.90;;;;;;5082704;28;20127;-83
2022/03/10 05:35:15;;;;;;;21.98;11.02;;;0.10;99.90;;;;;;5089701;28;20070;-83
2022/03/10 05:37:42;;;;;;;22.48;11.45;;;0.20;99.90;;;;;;5081071;28;20101;-84
2022/03/10 05:40:09;;;;;;;21.75;12.07;;;0.20;99.90;;;;;;5088619;28;20464;-84
2022/03/10 05:42:41;;;;;;;19.35;10.35;;;0.30;99.90;;;;;;5077466;28;20565;-83
2022/03/10 05:45:07;;;;;;;;;;;0.40;99.90;;;;;;5115869;28;20039;-84
2022/03/10 05:47:33;;;;;;;20.45;11.05;;;0.40;99.90;;;;;;5100786;28;20461;-83
2022/03/10 05:49:58;;;;;;;22.33;10.98;;;0.40;99.90;;;;;;5096078;27;20141;-83
2022/03/10 05:52:24;;;;;;;22.20;10.25;;;0.40;99.90;;;;;;5096077;27;20130;-83
2022/03/10 05:54:50;;;;;;;21.02;10.63;;;0.50;99.90;;;;;;5099030;27;20039;-83
2022/03/10 05:57:16;;;;;;;19.55;10.90;;;0.50;99.90;;;;;;5098796;27;21001;-83
2022/03/10 05:59:42;;;;;;;23.15;11.00;;;0.50;99.90;;;;;;5092807;27;20164;-83
2022/03/10 06:02:07;;;;;;;26.55;12.13;;;0.60;99.90;;;;;;5102653;27;20066;-83
2022/03/10 06:04:33;;;;;;;23.27;10.88;;;0.60;99.90;;;;;;5107740;27;20054;-83
2022/03/10 06:07:00;;;;;;;23.52;11.23;;;0.60;99.90;;;;;;5083466;27;20054;-83
2022/03/10 06:09:26;;;;;;;19.83;10.88;;;1.40;99.90;;;;;;5091469;27;20050;-83
2022/03/10 06:11:51;;;;;;;19.30;10.32;;;0.60;99.90;;;;;;5110359;27;20049;-83
2022/03/10 06:14:18;;;;;;;22.50;10.80;;;0.60;99.90;;;;;;5101393;27;20408;-83
2022/03/10 06:16:44;;;;;;;22.90;10.25;;;0.60;99.90;;;;;;5094636;27;20039;-82
2022/03/10 06:19:10;;;;;;;20.92;11.40;;;0.70;99.90;;;;;;5096251;27;20076;-83
2022/03/10 06:21:37;;;;;;;18.65;9.82;;;0.70;99.90;;;;;;5093974;27;20679;-83
2022/03/10 06:24:03;;;;;;;21.75;11.07;;;0.80;99.90;;;;;;5076515;27;20051;-83
2022/03/10 06:26:29;;;;;;;23.90;11.02;;;0.90;99.90;;;;;;5092316;27;20093;-83
2022/03/10 06:28:54;;;;;;;21.35;10.70;;;1.00;99.90;;;;;;5103590;27;20126;-83
2022/03/10 06:31:23;;;;;;;22.88;10.55;;;1.00;99.90;;;;;;5100082;27;20043;-83
2022/03/10 06:33:49;;;;;;;24.08;11.13;;;1.10;99.90;;;;;;5099539;27;20043;-83
2022/03/10 06:36:14;;;;;;;21.92;11.13;;;1.20;99.90;;;;;;5095832;27;20043;-83
2022/03/10 06:38:40;;;;;;;24.63;10.25;;;1.30;99.90;;;;;;5091947;27;20449;-83
2022/03/10 06:41:07;;;;;;;21.23;11.20;;;1.30;99.90;;;;;;5077352;27;20051;-83
2022/03/10 06:43:33;;;;;;;23.67;11.25;;;1.40;99.90;;;;;;5078815;27;20043;-83
2022/03/10 06:45:58;;;;;;;22.73;11.23;;;1.50;99.90;;;;;;5105956;27;20515;-83
2022/03/10 06:48:24;;;;;;;23.30;10.65;;;1.50;99.90;;;;;;5086113;27;20582;-83
2022/03/10 06:50:52;;;;;;;21.23;10.25;;;1.60;99.90;;;;;;5085077;27;20051;-83
2022/03/10 06:53:18;;;;;;;18.60;10.45;;;1.70;99.90;;;;;;5074373;27;20122;-83
2022/03/10 06:55:44;;;;;;;21.95;10.68;;;3.00;99.90;;;;;;5092357;27;20656;-83
2022/03/10 06:58:10;;;;;;;22.65;11.25;;;1.90;99.90;;;;;;5073222;27;20032;-83
2022/03/10 07:00:35;;;;;;;26.48;11.25;;;2.00;99.90;;;;;;5076128;27;20038;-84
2022/03/10 07:03:01;;;;;;;23.95;11.77;;;2.00;99.90;;;;;;5093888;27;20073;-83
2022/03/10 07:05:27;;;;;;;21.23;10.80;;;2.10;99.90;;;;;;5092431;27;20039;-83
2022/03/10 07:07:53;;;;;;;26.27;12.50;;;2.10;99.90;;;;;;5092363;27;20047;-83
2022/03/10 07:10:19;;;;;;;23.08;11.07;;;2.20;99.90;;;;;;5079774;27;20039;-83
2022/03/10 07:12:45;;;;;;;21.52;10.52;;;2.70;99.90;;;;;;5083249;27;20053;-83
2022/03/10 07:15:12;;;;;;;21.20;10.98;;;3.90;99.90;;;;;;5095612;27;20070;-83
2022/03/10 07:17:39;;;;;;;20.05;11.05;;;5.50;99.90;;;;;;5109816;27;20158;-83
2022/03/10 07:20:07;;;;;;;21.33;11.73;;;6.50;99.90;;;;;;5119780;27;20112;-83
2022/03/10 07:22:33;;;;;;;22.85;10.43;;;6.50;99.90;;;;;;5123320;27;20051;-83
2022/03/10 07:24:58;;;;;;;23.52;11.18;;;7.20;99.30;;;;;;5125590;27;20049;-83
2022/03/10 07:27:24;;;;;;;24.42;12.10;;;9.00;97.90;;;;;;5122590;27;20233;-84
2022/03/10 07:29:51;;;;;;;22.23;11.00;;;8.80;95.60;;;;;;5137817;27;20039;-83
2022/03/10 07:32:16;;;;;;;20.92;11.07;;;9.70;94.00;;;;;;5108167;27;20041;-83
2022/03/10 07:34:44;;;;;;;21.50;11.45;;;10.70;92.60;;;;;;5107683;27;20026;-83
2022/03/10 07:37:10;;;;;;;22.83;12.02;;;11.10;90.80;;;;;;5101205;27;20035;-84
2022/03/10 07:39:36;;;;;;;20.10;11.38;;;11.50;87.10;;;;;;5112925;27;20613;-83
2022/03/10 07:42:02;;;;;;;20.45;10.80;;;11.10;82.70;;;;;;5119521;27;20658;-84
2022/03/10 07:44:27;;;;;;;21.83;11.10;;;11.10;82.60;;;;;;5104253;27;20053;-84
2022/03/10 07:46:53;;;;;;;19.20;11.05;;;10.80;81.30;;;;;;5118924;27;20072;-84
2022/03/10 07:49:19;;;;;;;19.83;10.90;;;10.60;83.30;;;;;;5106315;27;20134;-83
2022/03/10 07:51:45;;;;;;;22.90;11.82;;;10.50;84.40;;;;;;5108661;27;20062;-84
2022/03/10 07:54:11;;;;;;;21.60;11.68;;;10.90;80.80;;;;;;5101592;27;20114;-84
2022/03/10 07:56:37;;;;;;;24.80;11.55;;;11.50;79.60;;;;;;5107701;27;20557;-84
2022/03/10 07:59:03;;;;;;;21.02;11.55;;;11.60;77.40;;;;;;5108239;27;20039;-85
2022/03/10 08:01:30;;;;;;;23.65;11.95;;;11.80;75.80;;;;;;5086715;27;20176;-84
2022/03/10 08:03:56;;;;;;;24.60;12.70;;;12.00;76.90;;;;;;5106140;27;20054;-84
2022/03/10 08:06:24;;;;;;;20.25;11.57;;;12.10;72.90;;;;;;5107399;27;20035;-86
2022/03/10 08:08:52;;;;;;;18.23;11.63;;;11.40;72.10;;;;;;5120047;27;20049;-88
2022/03/10 08:11:18;;;;;;;21.52;10.50;;;10.60;72.40;;;;;;5119805;27;20050;-85
2022/03/10 08:13:44;;;;;;;20.38;10.95;;;9.50;75.30;;;;;;5106459;27;20039;-85
2022/03/10 08:16:10;;;;;;;22.27;11.43;;;9.80;77.40;;;;;;5140708;27;20055;-84
2022/03/10 08:18:36;;;;;;;21.83;12.35;;;9.30;78.00;;;;;;5122373;27;20532;-84
2022/03/10 08:21:02;;;;;;;19.45;11.68;;;8.30;78.80;;;;;;5104785;27;20039;-85
2022/03/10 08:23:28;;;;;;;24.10;11.80;;;8.20;80.50;;;;;;5140694;27;20138;-86
2022/03/10 08:25:55;;;;;;;22.83;10.95;;;8.10;81.40;;;;;;5105072;27;20122;-85
2022/03/10 08:28:26;;;;;;;22.15;10.80;;;8.10;81.70;;;;;;5104266;27;20061;-85
2022/03/10 08:30:52;;;;;;;19.35;10.48;;;8.10;82.00;;;;;;5123993;27;20072;-84
2022/03/10 08:33:18;;;;;;;22.40;10.68;;;8.20;81.70;;;;;;5126088;27;20063;-84
2022/03/10 08:35:44;;;;;;;24.48;11.95;;;8.30;82.60;;;;;;5123277;27;20407;-85
2022/03/10 08:38:09;;;;;;;18.58;10.80;;;8.30;81.50;;;;;;5123074;27;20383;-84
2022/03/10 08:40:35;;;;;;;20.95;11.50;;;8.70;82.60;;;;;;5118683;27;20047;-85
2022/03/10 08:43:01;;;;;;;20.40;11.48;;;8.60;82.10;;;;;;5126080;27;20073;-84
2022/03/10 08:45:27;;;;;;;19.73;10.23;;;8.80;81.60;;;;;;5105797;27;20099;-86
2022/03/10 08:47:54;;;;;;;17.73;10.82;;;9.00;82.80;;;;;;5106635;27;20038;-88
2022/03/10 08:50:24;;;;;;;20.48;11.30;;;9.00;82.00;;;;;;5106520;27;20046;-84
2022/03/10 08:52:51;;;;;;;23.55;11.93;;;9.10;82.90;;;;;;5125250;27;20046;-87
2022/03/10 08:55:17;;;;;;;20.70;11.98;;;9.20;80.80;;;;;;5108010;27;20043;-85
2022/03/10 08:57:43;;;;;;;22.48;12.50;;;9.80;80.40;;;;;;5108469;27;20097;-85
2022/03/10 09:00:11;;;;;;;20.73;11.27;;;9.40;80.60;;;;;;5124739;27;20035;-85
2022/03/10 09:02:36;;;;;;;17.60;10.68;;;9.50;81.80;;;;;;5141441;27;20035;-87
2022/03/10 09:05:04;;;;;;;19.65;11.50;;;9.60;82.30;;;;;;5108811;27;20049;-86
2022/03/10 09:07:29;;;;;;;21.23;11.32;;;9.70;80.00;;;;;;5107456;27;20081;-85
2022/03/10 09:09:55;;;;;;;19.02;11.75;;;9.90;81.40;;;;;;5101679;27;20067;-86
2022/03/10 09:12:21;;;;;;;20.35;11.35;;;10.30;78.90;;;;;;5124335;27;20038;-84
2022/03/10 09:14:47;;;;;;;21.67;11.65;;;10.00;82.00;;;;;;5139161;27;20050;-85
2022/03/10 09:17:13;;;;;;;22.48;12.10;;;10.20;80.90;;;;;;5103296;27;20061;-86
2022/03/10 09:19:39;;;;;;;20.25;11.82;;;10.30;80.60;;;;;;5140812;27;20035;-84
2022/03/10 09:22:05;;;;;;;19.42;11.40;;;10.40;77.90;;;;;;5109417;27;20074;-84
2022/03/10 09:24:32;;;;;;;20.50;11.80;;;10.60;78.90;;;;;;5126755;27;20146;-84
2022/03/10 09:26:58;;;;;;;19.23;12.35;;;10.60;78.40;;;;;;5109957;27;20058;-84
2022/03/10 09:29:23;;;;;;;22.02;12.30;;;10.90;80.40;;;;;;5123752;27;20117;-85
2022/03/10 09:31:49;;;;;;;17.50;11.07;;;11.00;76.20;;;;;;5127196;27;20183;-84
2022/03/10 09:34:15;;;;;;;20.25;11.80;;;11.10;78.00;;;;;;5110581;27;20046;-85
2022/03/10 09:36:40;;;;;;;19.95;12.18;;;11.10;79.10;;;;;;5145818;27;20038;-83
2022/03/10 09:39:06;;;;;;;20.38;11.40;;;11.20;77.80;;;;;;5111913;27;20391;-84
2022/03/10 09:41:32;;;;;;;20.33;12.15;;;11.30;76.30;;;;;;5146993;27;20099;-84
2022/03/10 09:43:59;;;;;;;23.48;13.15;;;11.30;76.60;;;;;;5107957;27;20038;-83
2022/03/10 09:46:25;;;;;;;24.33;12.27;;;11.40;74.20;;;;;;5108662;27;20541;-84
2022/03/10 09:48:53;;;;;;;21.52;12.88;;;11.40;75.10;;;;;;5109998;27;20043;-86
2022/03/10 09:51:22;;;;;;;21.98;11.98;;;11.50;74.80;;;;;;5125923;27;20411;-85
2022/03/10 09:53:48;;;;;;;21.20;13.13;;;11.50;74.20;;;;;;5108918;27;20042;-83
2022/03/10 09:56:14;;;;;;;21.83;12.48;;;11.50;73.30;;;;;;5109461;27;20035;-83
2022/03/10 09:58:40;;;;;;;21.88;12.75;;;11.90;74.30;;;;;;5127664;27;20456;-84
2022/03/10 10:01:08;;;;;;;24.27;13.55;;;11.90;74.70;;;;;;5109002;27;20051;-85
2022/03/10 10:03:35;;;;;;;24.15;12.95;;;11.60;73.50;;;;;;5107647;27;20027;-83
2022/03/10 10:06:02;;;;;;;24.38;13.43;;;11.70;70.80;;;;;;5109104;27;20542;-83
2022/03/10 10:08:31;;;;;;;22.70;13.43;;;11.70;73.20;;;;;;5129034;27;20769;-83
2022/03/10 10:10:59;;;;;;;21.25;12.38;;;11.80;72.00;;;;;;5110938;27;20614;-84
2022/03/10 10:13:37;;;;;;;21.08;12.60;;;11.80;73.30;;;;;;5125947;27;20737;-83
2022/03/10 10:16:11;;;;;;;21.73;13.23;;;11.90;71.20;;;;;;5126100;27;20054;-84
2022/03/10 10:18:39;;;;;;;22.38;13.23;;;11.90;69.40;;;;;;5127136;27;20047;-83
2022/03/10 10:21:06;;;;;;;22.67;13.27;;;11.90;69.00;;;;;;5127544;27;20054;-83
2022/03/10 10:23:34;;;;;;;23.55;13.18;;;12.20;69.70;;;;;;5128986;27;20086;-83
2022/03/10 10:26:08;;;;;;;21.60;13.57;;;12.00;70.50;;;;;;5111203;27;20159;-85
2022/03/10 10:28:41;;;;;;;22.75;13.60;;;12.00;70.10;;;;;;5110301;27;20087;-83
2022/03/10 10:31:11;;;;;;;21.85;13.23;;;12.10;71.30;;;;;;5142022;27;20131;-82
2022/03/10 10:33:38;;;;;;;22.88;14.30;;;12.20;69.60;;;;;;5109809;27;20042;-83
2022/03/10 10:36:19;;;;;;;25.08;13.48;;;12.20;68.70;;;;;;5145164;27;20478;-85
2022/03/10 10:38:47;;;;;;;22.70;13.95;;;12.20;68.70;;;;;;5111467;27;20085;-83
2022/03/10 10:41:18;;;;;;;22.02;13.15;;;12.30;68.80;;;;;;5125830;27;20534;-83
2022/03/10 10:43:49;;;;;;;22.60;13.05;;;12.30;69.40;;;;;;5110002;27;20043;-83
2022/03/10 10:46:25;;;;;;;24.25;13.35;;;12.40;68.50;;;;;;5110266;27;20046;-84
2022/03/10 10:48:51;;;;;;;20.42;12.07;;;12.50;70.50;;;;;;5108974;27;20049;-84
2022/03/10 10:51:29;;;;;;;21.15;13.48;;;12.60;70.30;;;;;;5126928;27;20130;-82
2022/03/10 10:53:56;;;;;;;23.65;13.70;;;12.70;68.70;;;;;;5124528;27;20053;-82
2022/03/10 10:56:22;;;;;;;20.30;12.93;;;12.80;69.10;;;;;;5126488;27;20035;-83
2022/03/10 10:58:48;;;;;;;24.85;14.02;;;13.30;71.20;;;;;;5128397;27;20034;-82
2022/03/10 11:01:35;;;;;;;29.48;13.25;;;12.90;68.10;;;;;;5124896;27;20515;-83
2022/03/10 11:04:03;;;;;;;22.63;13.48;;;13.00;67.90;;;;;;5123071;27;20039;-82
2022/03/10 11:06:29;;;;;;;19.60;13.05;;;12.90;65.80;;;;;;5086024;27;20055;-83
2022/03/10 11:08:55;;;;;;;20.98;13.18;;;12.90;64.00;;;;;;5137866;27;20043;-82
2022/03/10 11:11:24;;;;;;;23.30;13.80;;;13.00;64.70;;;;;;5150083;27;20058;-82
2022/03/10 11:13:51;;;;;;;22.52;14.55;;;13.00;64.50;;;;;;5115370;27;20038;-83
2022/03/10 11:16:18;;;;;;;22.27;13.35;;;13.00;66.50;;;;;;5132844;27;20130;-83
2022/03/10 11:18:52;;;;;;;21.88;13.82;;;13.10;66.90;;;;;;5132733;27;20046;-88
2022/03/10 11:21:21;;;;;;;24.25;14.68;;;13.80;67.90;;;;;;5113920;27;20055;-83
2022/03/10 11:24:44;;;;;;;25.95;14.85;;;13.80;64.40;;;;;;5131801;27;20058;-85
2022/03/10 11:27:16;;;;;;;27.55;16.02;;;13.50;63.00;;;;;;5105216;27;20051;-87
2022/03/10 11:29:46;;;;;;;28.60;16.10;;;13.50;61.60;;;;;;5116509;27;20106;-82
2022/03/10 11:32:12;;;;;;;23.52;14.55;;;13.50;63.20;;;;;;5134807;27;20067;-83
2022/03/10 11:34:53;;;;;;;26.15;15.60;;;14.00;63.20;;;;;;5106683;27;20077;-84
2022/03/10 11:37:40;;;;;;;26.52;14.88;;;13.50;60.60;;;;;;5123337;27;20043;-83
2022/03/10 11:40:08;;;;;;;25.52;15.20;;;13.50;61.40;;;;;;5138403;27;20057;-83
2022/03/10 11:42:35;;;;;;;26.45;14.40;;;13.40;58.40;;;;;;5098138;27;20035;-83
2022/03/10 11:45:21;;;;;;;25.23;14.55;;;13.20;60.20;;;;;;5093166;27;20662;-88
2022/03/10 11:47:48;;;;;;;26.08;15.55;;;13.10;58.70;;;;;;5114901;27;20074;-83
2022/03/10 11:50:26;;;;;;;25.10;14.48;;;12.90;61.60;;;;;;5102463;27;20046;-84
2022/03/10 11:52:57;;;;;;;23.23;14.20;;;12.80;61.20;;;;;;5112565;27;20058;-83
2022/03/10 11:55:38;;;;;;;23.75;14.10;;;12.80;60.00;;;;;;5141207;27;20071;-82
2022/03/10 11:58:06;;;;;;;24.35;14.95;;;12.80;61.40;;;;;;5088839;27;20045;-84
2022/03/10 12:00:44;;;;;;;27.05;14.73;;;12.80;60.00;;;;;;5125100;27;20042;-83
2022/03/10 12:03:20;;;;;;;20.85;13.63;;;13.70;60.90;;;;;;5106904;27;20696;-82
2022/03/10 12:06:07;;;;;;;27.23;14.90;;;13.10;62.30;;;;;;5139865;27;20034;-83
2022/03/10 12:08:35;;;;;;;26.90;15.68;;;13.30;60.70;;;;;;5107066;27;20047;-82
2022/03/10 12:11:05;;;;;;;28.83;15.52;;;13.40;61.20;;;;;;5109185;27;20085;-82
2022/03/10 12:13:44;;;;;;;24.50;14.67;;;13.50;61.80;;;;;;5124164;27;20045;-82
2022/03/10 12:16:28;;;;;;;24.20;14.88;;;13.50;60.70;;;;;;5124094;27;20300;-83
2022/03/10 12:18:54;;;;;;;26.77;15.40;;;13.60;61.00;;;;;;5109273;27;20078;-84
2022/03/10 12:21:24;;;;;;;26.45;14.45;;;13.40;60.20;;;;;;5125732;27;20042;-83
2022/03/10 12:23:57;;;;;;;25.02;15.15;;;13.20;61.00;;;;;;5122679;27;20065;-84
2022/03/10 12:26:34;;;;;;;26.48;15.35;;;13.20;62.30;;;;;;5137567;27;20502;-83
2022/03/10 12:29:05;;;;;;;26.25;15.48;;;13.30;62.60;;;;;;5139237;27;20051;-85
2022/03/10 12:31:35;;;;;;;25.75;15.13;;;13.60;63.00;;;;;;5108182;27;20053;-86
2022/03/10 12:34:06;;;;;;;23.95;14.93;;;14.20;60.30;;;;;;5106821;27;20042;-84
2022/03/10 12:36:51;;;;;;;26.08;16.08;;;14.20;61.10;;;;;;5108057;27;20047;-87
2022/03/10 12:39:19;;;;;;;26.00;15.77;;;14.20;59.20;;;;;;5125203;27;20122;-83